createdAt,value
2022-12-31T00:00:06.049Z,0.40
2022-12-31T00:02:32.643Z,0.20
2022-12-31T00:04:59.181Z,0.52
2022-12-31T00:07:25.607Z,0.20
2022-12-31T00:09:52.001Z,0.20
2022-12-31T00:12:18.403Z,0.40
2022-12-31T00:14:44.881Z,0.30
2022-12-31T00:17:11.337Z,0.20
2022-12-31T00:19:37.874Z,0.20
2022-12-31T00:22:04.296Z,0.10
2022-12-31T00:24:31.148Z,0.20
2022-12-31T00:26:57.665Z,0.20
2022-12-31T00:29:24.235Z,0.10
2022-12-31T00:31:50.719Z,0.20
2022-12-31T00:34:17.178Z,0.20
2022-12-31T00:36:45.898Z,0.40
2022-12-31T00:39:12.550Z,0.08
2022-12-31T00:41:39.081Z,0.20
2022-12-31T00:44:05.761Z,0.30
2022-12-31T00:46:32.413Z,0.10
2022-12-31T00:48:59.107Z,0.40
2022-12-31T00:51:27.515Z,0.28
2022-12-31T00:53:55.097Z,0.20
2022-12-31T00:56:23.812Z,0.30
2022-12-31T00:58:51.165Z,0.30
2022-12-31T01:01:17.561Z,0.28
2022-12-31T01:03:45.046Z,0.47
2022-12-31T01:06:11.850Z,0.40
2022-12-31T01:08:38.529Z,0.50
2022-12-31T01:11:23.907Z,0.32
2022-12-31T01:14:02.310Z,0.68
2022-12-31T01:16:41.014Z,0.30
2022-12-31T01:19:11.301Z,0.40
2022-12-31T01:21:39.801Z,0.20
2022-12-31T01:24:08.468Z,0.30
2022-12-31T01:26:35.314Z,0.43
2022-12-31T01:29:01.713Z,0.30
2022-12-31T01:31:28.647Z,0.30
2022-12-31T01:33:55.473Z,0.30
2022-12-31T01:36:26.523Z,0.30
2022-12-31T01:38:54.827Z,0.70
2022-12-31T01:41:23.985Z,0.20
2022-12-31T01:43:56.170Z,0.20
2022-12-31T01:46:40.324Z,0.00
2022-12-31T01:49:19.329Z,0.40
2022-12-31T01:51:50.688Z,0.10
2022-12-31T01:54:21.201Z,0.25
2022-12-31T01:56:50.152Z,0.10
2022-12-31T01:59:18.599Z,0.10
2022-12-31T02:01:48.105Z,0.10
2022-12-31T02:04:15.670Z,0.13
2022-12-31T02:06:46.934Z,0.00
2022-12-31T02:09:13.886Z,0.10
2022-12-31T02:11:40.332Z,0.00
2022-12-31T02:14:14.964Z,0.10
2022-12-31T02:16:41.394Z,0.00
2022-12-31T02:19:16.785Z,0.10
2022-12-31T02:22:20.838Z,0.20
2022-12-31T02:25:09.478Z,0.00
2022-12-31T02:27:57.420Z,0.10
2022-12-31T02:30:24.990Z,0.00
2022-12-31T02:33:08.123Z,0.00
2022-12-31T02:35:57.965Z,0.08
2022-12-31T02:38:33.557Z,0.00
2022-12-31T02:41:00.283Z,0.10
2022-12-31T02:43:27.577Z,0.00
2022-12-31T02:45:59.588Z,0.10
2022-12-31T02:48:54.267Z,0.25
2022-12-31T02:51:35.794Z,0.00
2022-12-31T02:54:20.603Z,0.10
2022-12-31T02:57:04.972Z,0.00
2022-12-31T03:00:04.086Z,0.10
2022-12-31T03:02:33.620Z,0.00
2022-12-31T03:05:02.544Z,0.10
2022-12-31T03:07:32.202Z,0.25
2022-12-31T03:09:59.853Z,0.00
2022-12-31T03:12:47.819Z,0.03
2022-12-31T03:15:24.494Z,0.10
2022-12-31T03:18:00.416Z,0.28
2022-12-31T03:20:57.407Z,0.10
2022-12-31T03:24:08.358Z,0.10
2022-12-31T03:26:35.755Z,0.15
2022-12-31T03:29:02.156Z,0.10
2022-12-31T03:31:28.564Z,0.20
2022-12-31T03:33:55.102Z,0.10
2022-12-31T03:36:21.567Z,0.00
2022-12-31T03:38:52.565Z,0.03
2022-12-31T03:41:19.390Z,0.10
2022-12-31T03:43:45.900Z,0.00
2022-12-31T03:46:12.384Z,0.00
2022-12-31T03:48:39.884Z,0.17
2022-12-31T03:51:06.284Z,0.20
2022-12-31T03:53:34.740Z,0.10
2022-12-31T03:56:01.152Z,0.10
2022-12-31T03:58:27.550Z,0.10
2022-12-31T04:00:54.031Z,0.20
2022-12-31T04:03:20.516Z,0.30
2022-12-31T04:05:53.778Z,0.15
2022-12-31T04:08:20.187Z,0.20
2022-12-31T04:10:46.680Z,0.10
2022-12-31T04:13:13.067Z,0.15
2022-12-31T04:15:39.489Z,0.10
2022-12-31T04:18:05.913Z,0.10
2022-12-31T04:20:32.348Z,0.20
2022-12-31T04:22:58.732Z,0.22
2022-12-31T04:25:25.154Z,0.30
2022-12-31T04:27:51.549Z,0.25
2022-12-31T04:30:18.040Z,0.20
2022-12-31T04:32:44.436Z,0.20
2022-12-31T04:35:11.504Z,0.17
2022-12-31T04:37:38.276Z,0.20
2022-12-31T04:40:07.011Z,0.10
2022-12-31T04:42:34.504Z,0.20
2022-12-31T04:45:00.988Z,0.20
2022-12-31T04:47:27.463Z,0.20
2022-12-31T04:49:53.889Z,0.20
2022-12-31T04:52:20.492Z,0.17
2022-12-31T04:54:46.941Z,0.25
2022-12-31T04:57:13.355Z,0.10
2022-12-31T04:59:39.809Z,0.20
2022-12-31T05:02:06.530Z,0.20
2022-12-31T05:04:33.134Z,0.20
2022-12-31T05:06:59.579Z,0.30
2022-12-31T05:09:27.487Z,0.22
2022-12-31T05:11:53.940Z,0.30
2022-12-31T05:14:20.479Z,0.17
2022-12-31T05:16:46.918Z,0.20
2022-12-31T05:19:13.364Z,0.40
2022-12-31T05:21:39.853Z,0.40
2022-12-31T05:24:06.615Z,0.30
2022-12-31T05:26:33.234Z,0.25
2022-12-31T05:29:00.505Z,0.20
2022-12-31T05:31:26.988Z,0.10
2022-12-31T05:33:53.447Z,0.28
2022-12-31T05:36:19.867Z,0.30
2022-12-31T05:38:46.285Z,0.30
2022-12-31T05:41:12.687Z,0.13
2022-12-31T05:43:39.085Z,0.10
2022-12-31T05:46:05.790Z,0.20
2022-12-31T05:48:32.314Z,0.38
2022-12-31T05:50:58.864Z,0.40
2022-12-31T05:53:25.434Z,0.40
2022-12-31T05:55:51.941Z,0.10
2022-12-31T05:58:18.808Z,0.40
2022-12-31T06:00:45.980Z,0.10
2022-12-31T06:03:12.637Z,0.60
2022-12-31T06:05:41.822Z,0.22
2022-12-31T06:08:08.660Z,0.30
2022-12-31T06:10:35.060Z,0.20
2022-12-31T06:13:01.494Z,0.20
2022-12-31T06:15:27.971Z,0.35
2022-12-31T06:17:54.410Z,0.38
2022-12-31T06:20:20.829Z,0.30
2022-12-31T06:22:47.227Z,0.45
2022-12-31T06:25:14.196Z,0.30
2022-12-31T06:27:40.588Z,0.20
2022-12-31T06:30:07.950Z,0.40
2022-12-31T06:32:34.958Z,0.30
2022-12-31T06:35:01.380Z,0.30
2022-12-31T06:37:28.098Z,0.32
2022-12-31T06:39:54.529Z,0.38
2022-12-31T06:42:21.067Z,0.32
2022-12-31T06:44:47.472Z,0.60
2022-12-31T06:47:13.865Z,0.43
2022-12-31T06:49:40.818Z,0.28
2022-12-31T06:52:07.295Z,0.30
2022-12-31T06:54:33.960Z,0.55
2022-12-31T06:57:00.562Z,0.25
2022-12-31T06:59:29.085Z,0.30
2022-12-31T07:02:21.111Z,0.38
2022-12-31T07:04:56.552Z,0.40
2022-12-31T07:07:40.816Z,0.60
2022-12-31T07:10:30.760Z,0.28
2022-12-31T07:13:28.264Z,0.52
2022-12-31T07:17:02.527Z,0.30
2022-12-31T07:19:43.164Z,0.28
2022-12-31T07:22:15.241Z,0.40
2022-12-31T07:24:44.712Z,0.40
2022-12-31T07:27:46.428Z,0.35
2022-12-31T07:30:20.624Z,0.52
2022-12-31T07:33:21.516Z,0.60
2022-12-31T07:36:06.467Z,0.40
2022-12-31T07:39:10.312Z,0.60
2022-12-31T07:41:36.680Z,0.40
2022-12-31T07:44:41.562Z,0.50
2022-12-31T07:47:21.115Z,0.63
2022-12-31T07:49:48.246Z,0.50
2022-12-31T07:52:15.045Z,0.43
2022-12-31T07:54:41.472Z,0.30
2022-12-31T07:57:11.417Z,0.40
2022-12-31T08:00:07.211Z,0.65
2022-12-31T08:02:55.256Z,0.60
2022-12-31T08:05:42.774Z,0.40
2022-12-31T08:08:33.431Z,0.40
2022-12-31T08:11:21.575Z,0.30
2022-12-31T08:13:48.890Z,0.50
2022-12-31T08:16:15.743Z,0.40
2022-12-31T08:18:42.350Z,0.52
2022-12-31T08:21:22.319Z,0.50
2022-12-31T08:24:07.133Z,0.55
2022-12-31T08:26:53.395Z,0.52
2022-12-31T08:29:34.134Z,0.60
2022-12-31T08:32:23.848Z,0.22
2022-12-31T08:35:14.718Z,0.73
2022-12-31T08:37:52.504Z,0.60
2022-12-31T08:40:30.827Z,0.60
2022-12-31T08:43:15.562Z,0.60
2022-12-31T08:45:49.914Z,0.60
2022-12-31T08:48:55.384Z,0.50
2022-12-31T08:51:23.694Z,0.52
2022-12-31T08:53:50.827Z,0.50
2022-12-31T08:56:50.743Z,0.50
2022-12-31T08:59:29.775Z,0.63
2022-12-31T09:02:02.082Z,0.32
2022-12-31T09:05:25.528Z,1.17
2022-12-31T09:08:19.256Z,0.45
2022-12-31T09:11:06.618Z,0.40
2022-12-31T09:16:27.527Z,0.90
2022-12-31T09:18:53.997Z,0.60
2022-12-31T09:21:20.617Z,0.45
2022-12-31T09:23:47.257Z,0.55
2022-12-31T09:26:35.566Z,0.70
2022-12-31T09:29:27.935Z,0.57
2022-12-31T09:31:57.086Z,0.50
2022-12-31T09:34:30.973Z,0.80
2022-12-31T09:37:03.436Z,0.77
2022-12-31T09:39:41.156Z,0.73
2022-12-31T09:42:26.790Z,0.73
2022-12-31T09:45:25.163Z,0.60
2022-12-31T09:48:00.596Z,0.80
2022-12-31T09:50:46.397Z,1.02
2022-12-31T09:53:50.287Z,0.63
2022-12-31T09:56:37.063Z,0.75
2022-12-31T09:59:13.708Z,0.57
2022-12-31T10:01:50.876Z,0.68
2022-12-31T10:04:29.281Z,0.52
2022-12-31T10:07:20.930Z,0.98
2022-12-31T10:09:56.581Z,0.60
2022-12-31T10:12:55.216Z,0.68
2022-12-31T10:15:54.166Z,0.82
2022-12-31T10:18:35.599Z,0.63
2022-12-31T10:21:22.285Z,0.60
2022-12-31T10:23:53.461Z,0.75
2022-12-31T10:26:29.099Z,0.75
2022-12-31T10:28:59.597Z,0.70
2022-12-31T10:31:56.595Z,0.93
2022-12-31T10:34:38.611Z,0.32
2022-12-31T10:37:14.894Z,0.52
2022-12-31T10:40:10.574Z,0.80
2022-12-31T10:43:00.126Z,0.70
2022-12-31T10:45:57.216Z,0.70
2022-12-31T10:48:29.490Z,0.60
2022-12-31T10:50:56.038Z,0.90
2022-12-31T10:54:00.123Z,0.50
2022-12-31T10:56:47.573Z,0.80
2022-12-31T11:15:55.774Z,0.40
2022-12-31T11:18:25.102Z,0.80
2022-12-31T11:21:28.822Z,0.73
2022-12-31T11:24:24.694Z,0.70
2022-12-31T11:27:03.260Z,0.85
2022-12-31T11:29:40.602Z,0.70
2022-12-31T11:32:30.086Z,0.65
2022-12-31T11:35:08.346Z,0.90
2022-12-31T11:37:41.977Z,0.82
2022-12-31T11:40:21.038Z,0.90
2022-12-31T11:43:01.851Z,0.68
2022-12-31T11:45:55.632Z,0.80
2022-12-31T11:48:48.273Z,0.90
2022-12-31T11:51:50.139Z,0.40
2022-12-31T11:54:38.529Z,0.93
2022-12-31T11:57:29.795Z,0.35
2022-12-31T12:00:13.449Z,0.85
2022-12-31T12:02:47.060Z,0.55
2022-12-31T12:05:16.661Z,0.70
2022-12-31T12:07:43.583Z,0.85
2022-12-31T12:10:29.149Z,0.82
2022-12-31T12:13:00.193Z,1.20
2022-12-31T12:15:31.324Z,1.00
2022-12-31T12:18:04.540Z,0.80
2022-12-31T12:20:34.127Z,1.00
2022-12-31T12:23:02.363Z,0.70
2022-12-31T12:25:55.217Z,0.77
2022-12-31T12:28:23.541Z,1.00
2022-12-31T12:30:58.055Z,0.65
2022-12-31T12:33:25.102Z,0.55
2022-12-31T12:35:51.577Z,0.73
2022-12-31T12:38:23.432Z,0.82
2022-12-31T12:40:54.423Z,0.85
2022-12-31T12:43:28.024Z,0.73
2022-12-31T12:46:16.372Z,0.70
2022-12-31T12:48:46.454Z,1.30
2022-12-31T12:51:31.373Z,0.88
2022-12-31T12:54:10.706Z,0.90
2022-12-31T12:56:59.799Z,0.80
2022-12-31T12:59:27.583Z,1.00
2022-12-31T13:02:07.813Z,0.90
2022-12-31T13:04:55.638Z,1.73
2022-12-31T13:07:35.902Z,1.02
2022-12-31T13:10:20.721Z,1.00
2022-12-31T13:13:25.893Z,0.80
2022-12-31T13:16:24.797Z,0.90
2022-12-31T13:18:54.211Z,0.98
2022-12-31T13:21:59.072Z,0.85
2022-12-31T13:24:55.846Z,0.73
2022-12-31T13:27:38.639Z,1.00
2022-12-31T13:30:24.791Z,0.93
2022-12-31T13:33:03.406Z,0.90
2022-12-31T13:35:39.263Z,0.90
2022-12-31T13:38:24.394Z,0.88
2022-12-31T13:41:28.390Z,0.75
2022-12-31T13:44:25.697Z,1.30
2022-12-31T13:47:10.146Z,0.75
2022-12-31T13:50:02.496Z,0.75
2022-12-31T13:52:37.996Z,1.00
2022-12-31T13:55:20.766Z,0.82
2022-12-31T13:58:05.290Z,0.70
2022-12-31T14:00:39.816Z,1.00
2022-12-31T14:03:33.806Z,1.52
2022-12-31T14:06:31.760Z,1.10
2022-12-31T14:08:59.976Z,0.90
2022-12-31T14:11:53.796Z,0.73
2022-12-31T14:14:44.677Z,0.73
2022-12-31T14:17:39.057Z,1.83
2022-12-31T14:20:20.484Z,1.00
2022-12-31T14:22:53.425Z,1.00
2022-12-31T14:25:34.183Z,0.80
2022-12-31T14:28:02.430Z,1.00
2022-12-31T14:30:34.349Z,1.00
2022-12-31T14:33:32.707Z,1.17
2022-12-31T14:36:10.319Z,1.00
2022-12-31T14:38:57.869Z,1.10
2022-12-31T14:41:39.589Z,0.82
2022-12-31T14:44:19.740Z,1.10
2022-12-31T14:47:05.078Z,0.85
2022-12-31T14:49:40.925Z,1.10
2022-12-31T14:52:27.792Z,1.17
2022-12-31T14:55:07.926Z,0.80
2022-12-31T14:58:09.655Z,0.80
2022-12-31T15:00:38.683Z,1.10
2022-12-31T15:03:22.861Z,1.30
2022-12-31T15:06:04.668Z,1.30
2022-12-31T15:09:17.580Z,1.23
2022-12-31T15:12:00.886Z,1.10
2022-12-31T15:14:49.365Z,0.90
2022-12-31T15:17:43.273Z,1.08
2022-12-31T15:20:17.638Z,1.08
2022-12-31T15:22:49.186Z,0.93
2022-12-31T15:25:41.519Z,1.15
2022-12-31T15:28:42.624Z,1.20
2022-12-31T15:31:18.811Z,1.20
2022-12-31T15:33:56.789Z,1.20
2022-12-31T15:36:26.322Z,1.42
2022-12-31T15:39:04.801Z,1.30
2022-12-31T15:41:42.897Z,1.38
2022-12-31T15:44:25.788Z,1.23
2022-12-31T15:46:57.937Z,1.40
2022-12-31T15:49:26.148Z,1.35
2022-12-31T15:52:08.429Z,1.20
2022-12-31T15:54:45.544Z,1.60
2022-12-31T15:57:44.284Z,1.20
2022-12-31T16:00:20.527Z,1.33
2022-12-31T16:02:49.952Z,1.10
2022-12-31T16:05:25.515Z,1.20
2022-12-31T16:07:57.665Z,0.98
2022-12-31T16:10:30.211Z,1.13
2022-12-31T16:12:58.541Z,0.98
2022-12-31T16:15:28.060Z,1.23
2022-12-31T16:18:05.431Z,1.20
2022-12-31T16:20:34.275Z,1.20
2022-12-31T16:23:03.343Z,1.30
2022-12-31T16:25:33.389Z,1.08
2022-12-31T16:28:03.312Z,1.33
2022-12-31T16:30:32.462Z,1.17
2022-12-31T16:33:02.289Z,1.27
2022-12-31T16:35:34.615Z,1.45
2022-12-31T16:38:07.868Z,1.10
2022-12-31T16:40:35.232Z,0.85
2022-12-31T16:43:01.873Z,1.20
2022-12-31T16:45:36.442Z,1.15
2022-12-31T16:48:23.485Z,1.38
2022-12-31T16:50:53.609Z,1.25
2022-12-31T16:53:24.980Z,1.27
2022-12-31T16:56:03.478Z,1.10
2022-12-31T16:58:48.552Z,1.50
2022-12-31T17:01:23.151Z,1.10
2022-12-31T17:03:57.953Z,1.23
2022-12-31T17:06:25.637Z,1.50
2022-12-31T17:08:59.497Z,1.15
2022-12-31T17:11:36.261Z,1.40
2022-12-31T17:14:05.661Z,1.10
2022-12-31T17:16:34.622Z,1.33
2022-12-31T17:21:30.269Z,1.55
2022-12-31T17:24:12.228Z,1.10
2022-12-31T17:26:38.716Z,1.10
2022-12-31T17:29:05.986Z,1.10
2022-12-31T17:31:37.875Z,1.20
2022-12-31T17:34:13.113Z,1.20
2022-12-31T17:37:14.469Z,1.20
2022-12-31T17:39:47.359Z,1.20
2022-12-31T17:42:23.001Z,1.40
2022-12-31T17:44:49.593Z,1.40
2022-12-31T17:47:16.108Z,1.50
2022-12-31T17:49:45.795Z,1.30
2022-12-31T17:52:14.232Z,1.10
2022-12-31T17:54:41.211Z,0.95
2022-12-31T17:57:21.587Z,1.30
2022-12-31T17:59:48.029Z,1.00
2022-12-31T18:02:14.582Z,1.20
2022-12-31T18:04:41.080Z,1.35
2022-12-31T18:07:07.473Z,1.50
2022-12-31T18:09:33.897Z,1.40
2022-12-31T18:12:02.640Z,1.30
2022-12-31T18:14:29.143Z,1.55
2022-12-31T18:16:55.566Z,1.60
2022-12-31T18:19:54.291Z,1.40
2022-12-31T18:22:14.407Z,1.50
2022-12-31T18:24:41.049Z,1.77
2022-12-31T18:27:18.835Z,1.42
2022-12-31T18:29:45.710Z,1.17
2022-12-31T18:32:22.554Z,0.85
2022-12-31T18:34:49.476Z,1.20
2022-12-31T18:37:21.732Z,1.23
2022-12-31T18:39:49.135Z,1.90
2022-12-31T18:42:17.723Z,1.33
2022-12-31T18:44:45.502Z,1.70
2022-12-31T18:47:18.018Z,1.73
2022-12-31T18:49:48.650Z,1.30
2022-12-31T18:52:20.424Z,1.73
2022-12-31T18:54:47.504Z,1.75
2022-12-31T18:57:15.288Z,1.70
2022-12-31T18:59:42.331Z,1.50
2022-12-31T19:02:16.493Z,1.80
2022-12-31T19:04:43.040Z,2.72
2022-12-31T19:07:09.475Z,1.83
2022-12-31T19:09:58.100Z,1.77
2022-12-31T19:12:22.492Z,1.38
2022-12-31T19:14:48.893Z,1.77
2022-12-31T19:17:15.295Z,1.40
2022-12-31T19:19:41.726Z,1.35
2022-12-31T19:22:14.785Z,1.50
2022-12-31T19:24:41.257Z,1.70
2022-12-31T19:27:09.628Z,1.55
2022-12-31T19:29:36.081Z,2.22
2022-12-31T19:32:02.757Z,1.92
2022-12-31T19:34:29.257Z,1.30
2022-12-31T19:36:55.732Z,1.65
2022-12-31T19:39:22.175Z,1.50
2022-12-31T19:41:54.740Z,1.58
2022-12-31T19:44:25.438Z,1.50
2022-12-31T19:46:51.909Z,1.65
2022-12-31T19:49:18.467Z,1.40
2022-12-31T19:51:44.932Z,1.77
2022-12-31T19:54:14.405Z,1.40
2022-12-31T19:56:41.019Z,1.90
2022-12-31T19:59:09.716Z,1.58
2022-12-31T20:01:36.810Z,1.40
2022-12-31T20:04:03.622Z,1.63
2022-12-31T20:06:31.242Z,1.88
2022-12-31T20:08:57.736Z,1.63
2022-12-31T20:11:24.923Z,1.95
2022-12-31T20:13:53.473Z,1.80
2022-12-31T20:16:24.436Z,1.40
2022-12-31T20:18:51.011Z,1.88
2022-12-31T20:21:20.706Z,1.55
2022-12-31T20:23:48.761Z,1.38
2022-12-31T20:26:15.193Z,1.52
2022-12-31T20:28:41.675Z,1.38
2022-12-31T20:31:10.751Z,2.00
2022-12-31T20:36:06.163Z,1.48
2022-12-31T20:38:32.825Z,1.42
2022-12-31T20:41:13.996Z,1.20
2022-12-31T20:43:40.720Z,1.60
2022-12-31T20:46:16.280Z,1.73
2022-12-31T20:48:44.024Z,1.02
2022-12-31T20:51:10.937Z,1.60
2022-12-31T20:53:37.411Z,1.33
2022-12-31T20:56:08.712Z,1.70
2022-12-31T20:58:35.630Z,1.65
2022-12-31T21:01:06.076Z,1.83
2022-12-31T21:06:20.094Z,1.55
2022-12-31T21:08:47.164Z,2.08
2022-12-31T21:11:33.321Z,1.50
2022-12-31T21:14:00.942Z,1.60
2022-12-31T21:16:28.207Z,1.58
2022-12-31T21:18:55.421Z,1.30
2022-12-31T21:21:22.460Z,1.17
2022-12-31T21:23:49.037Z,1.50
2022-12-31T21:26:15.669Z,2.15
2022-12-31T21:28:42.469Z,1.40
2022-12-31T21:31:11.605Z,2.15
2022-12-31T21:33:38.450Z,1.75
2022-12-31T21:36:05.338Z,1.60
2022-12-31T21:38:31.806Z,1.80
2022-12-31T21:41:02.928Z,1.38
2022-12-31T21:43:29.967Z,1.85
2022-12-31T21:46:04.760Z,1.95
2022-12-31T21:48:31.698Z,1.48
2022-12-31T21:51:15.151Z,1.48
2022-12-31T21:53:41.663Z,2.05
2022-12-31T21:56:09.310Z,1.83
2022-12-31T21:58:43.391Z,1.83
2022-12-31T22:01:38.030Z,1.70
2022-12-31T22:04:05.503Z,1.95
2022-12-31T22:06:35.639Z,1.70
2022-12-31T22:09:02.411Z,1.73
2022-12-31T22:11:29.010Z,2.20
2022-12-31T22:13:55.773Z,2.05
2022-12-31T22:16:22.608Z,2.28
2022-12-31T22:18:49.906Z,1.67
2022-12-31T22:21:20.035Z,2.28
2022-12-31T22:23:49.727Z,1.50
2022-12-31T22:26:18.342Z,2.55
2022-12-31T22:28:46.313Z,6.80
2022-12-31T22:31:15.568Z,2.10
2022-12-31T22:33:42.978Z,2.08
2022-12-31T22:36:18.443Z,1.70
2022-12-31T22:38:45.155Z,1.88
2022-12-31T22:41:17.417Z,1.67
2022-12-31T22:43:46.506Z,1.73
2022-12-31T22:46:14.481Z,1.77
2022-12-31T22:48:42.010Z,1.80
2022-12-31T22:51:10.178Z,1.48
2022-12-31T22:53:39.556Z,1.63
2022-12-31T22:56:06.579Z,2.00
2022-12-31T22:58:33.037Z,1.80
2022-12-31T23:00:59.519Z,1.80
2022-12-31T23:03:26.133Z,2.20
2022-12-31T23:05:52.862Z,3.97
2022-12-31T23:08:23.782Z,5.53
2022-12-31T23:11:01.823Z,7.80
2022-12-31T23:13:58.366Z,7.25
2022-12-31T23:16:45.422Z,6.75
2022-12-31T23:19:31.112Z,3.72
2022-12-31T23:22:16.716Z,4.82
2022-12-31T23:24:43.316Z,5.93
2022-12-31T23:27:10.772Z,7.38
2022-12-31T23:29:46.730Z,4.10
2022-12-31T23:32:18.279Z,4.45
2022-12-31T23:34:46.335Z,6.97
2022-12-31T23:37:14.193Z,5.00
2022-12-31T23:39:41.942Z,4.68
2022-12-31T23:42:08.732Z,4.20
2022-12-31T23:44:35.309Z,5.00
2022-12-31T23:47:01.905Z,5.03
2022-12-31T23:49:28.476Z,5.68
2022-12-31T23:51:54.967Z,4.90
2022-12-31T23:54:21.748Z,3.55
2022-12-31T23:56:48.179Z,3.70
2022-12-31T23:59:14.668Z,3.42
